sensor_id;sensor_type;location;lat;lon;timestamp;pressure;altitude;pressure_sealevel;temperature;humidity
70546;BME280;58098;51.680;5.134;2023-08-06T00:00:45;100441.81;;;15.07;100.00
70546;BME280;58098;51.680;5.134;2023-08-06T00:03:10;100445.44;;;15.06;100.00
70546;BME280;58098;51.680;5.134;2023-08-06T00:05:35;100438.03;;;15.01;100.00
70546;BME280;58098;51.680;5.134;2023-08-06T00:08:01;100443.59;;;14.98;100.00
70546;BME280;58098;51.680;5.134;2023-08-06T00:10:26;100443.59;;;14.98;100.00
70546;BME280;58098;51.680;5.134;2023-08-06T00:12:51;100441.47;;;14.94;100.00
70546;BME280;58098;51.680;5.134;2023-08-06T00:15:17;100435.69;;;14.90;100.00
70546;BME280;58098;51.680;5.134;2023-08-06T00:17:42;100433.72;;;14.92;100.00
70546;BME280;58098;51.680;5.134;2023-08-06T00:20:08;100440.75;;;14.92;100.00
70546;BME280;58098;51.680;5.134;2023-08-06T00:22:34;100434.06;;;14.89;100.00
70546;BME280;58098;51.680;5.134;2023-08-06T00:25:00;100427.97;;;14.89;100.00
70546;BME280;58098;51.680;5.134;2023-08-06T00:27:26;100420.06;;;14.81;100.00
70546;BME280;58098;51.680;5.134;2023-08-06T00:29:51;100420.88;;;14.81;100.00
70546;BME280;58098;51.680;5.134;2023-08-06T00:32:17;100423.34;;;14.83;100.00
70546;BME280;58098;51.680;5.134;2023-08-06T00:34:43;100432.72;;;14.85;100.00
70546;BME280;58098;51.680;5.134;2023-08-06T00:37:08;100421.84;;;14.80;100.00
70546;BME280;58098;51.680;5.134;2023-08-06T00:39:33;100422.19;;;14.85;100.00
70546;BME280;58098;51.680;5.134;2023-08-06T00:41:59;100421.72;;;14.82;100.00
70546;BME280;58098;51.680;5.134;2023-08-06T00:44:24;100428.09;;;14.87;100.00
70546;BME280;58098;51.680;5.134;2023-08-06T00:46:50;100411.50;;;14.79;100.00
70546;BME280;58098;51.680;5.134;2023-08-06T00:49:15;100415.09;;;14.78;100.00
70546;BME280;58098;51.680;5.134;2023-08-06T00:51:42;100423.03;;;14.86;100.00
70546;BME280;58098;51.680;5.134;2023-08-06T00:54:08;100419.88;;;14.82;100.00
70546;BME280;58098;51.680;5.134;2023-08-06T00:56:34;100419.75;;;14.84;100.00
70546;BME280;58098;51.680;5.134;2023-08-06T00:59:04;100412.81;;;14.75;100.00
70546;BME280;58098;51.680;5.134;2023-08-06T01:01:31;100421.72;;;14.82;100.00
70546;BME280;58098;51.680;5.134;2023-08-06T01:03:56;100419.53;;;14.77;100.00
70546;BME280;58098;51.680;5.134;2023-08-06T01:09:01;100419.22;;;14.80;100.00
70546;BME280;58098;51.680;5.134;2023-08-06T01:11:54;100414.97;;;14.79;100.00
70546;BME280;58098;51.680;5.134;2023-08-06T01:14:50;100412.66;;;14.76;100.00
70546;BME280;58098;51.680;5.134;2023-08-06T01:17:17;100407.88;;;14.72;100.00
70546;BME280;58098;51.680;5.134;2023-08-06T01:19:43;100404.41;;;14.71;100.00
70546;BME280;58098;51.680;5.134;2023-08-06T01:22:08;100396.19;;;14.66;100.00
70546;BME280;58098;51.680;5.134;2023-08-06T01:24:34;100421.19;;;14.78;100.00
70546;BME280;58098;51.680;5.134;2023-08-06T01:27:13;100414.13;;;14.79;100.00
70546;BME280;58098;51.680;5.134;2023-08-06T01:29:49;100413.78;;;14.74;100.00
70546;BME280;58098;51.680;5.134;2023-08-06T01:32:20;100418.22;;;14.73;100.00
70546;BME280;58098;51.680;5.134;2023-08-06T01:34:48;100396.16;;;14.58;100.00
70546;BME280;58098;51.680;5.134;2023-08-06T01:37:13;100406.38;;;14.69;100.00
70546;BME280;58098;51.680;5.134;2023-08-06T01:39:41;100422.97;;;14.78;100.00
70546;BME280;58098;51.680;5.134;2023-08-06T01:42:07;100415.75;;;14.72;100.00
70546;BME280;58098;51.680;5.134;2023-08-06T01:44:33;100422.50;;;14.74;100.00
70546;BME280;58098;51.680;5.134;2023-08-06T01:46:58;100423.81;;;14.78;100.00
70546;BME280;58098;51.680;5.134;2023-08-06T01:49:24;100419.03;;;14.74;100.00
70546;BME280;58098;51.680;5.134;2023-08-06T01:51:49;100419.88;;;14.74;100.00
70546;BME280;58098;51.680;5.134;2023-08-06T01:54:14;100426.13;;;14.81;100.00
70546;BME280;58098;51.680;5.134;2023-08-06T01:56:40;100411.00;;;14.75;100.00
70546;BME280;58098;51.680;5.134;2023-08-06T01:59:05;100413.47;;;14.77;100.00
70546;BME280;58098;51.680;5.134;2023-08-06T02:01:31;100418.72;;;14.77;100.00
70546;BME280;58098;51.680;5.134;2023-08-06T02:03:56;100416.59;;;14.80;100.00
70546;BME280;58098;51.680;5.134;2023-08-06T02:06:21;100420.22;;;14.79;100.00
70546;BME280;58098;51.680;5.134;2023-08-06T02:08:47;100426.59;;;14.77;100.00
70546;BME280;58098;51.680;5.134;2023-08-06T02:11:12;100415.59;;;14.73;100.00
70546;BME280;58098;51.680;5.134;2023-08-06T02:13:37;100414.75;;;14.73;100.00
70546;BME280;58098;51.680;5.134;2023-08-06T02:16:03;100421.19;;;14.78;100.00
70546;BME280;58098;51.680;5.134;2023-08-06T02:18:28;100407.22;;;14.70;100.00
70546;BME280;58098;51.680;5.134;2023-08-06T02:20:58;100417.56;;;14.71;100.00
70546;BME280;58098;51.680;5.134;2023-08-06T02:23:24;100407.69;;;14.73;100.00
70546;BME280;58098;51.680;5.134;2023-08-06T02:28:24;100419.38;;;14.79;100.00
70546;BME280;58098;51.680;5.134;2023-08-06T02:30:51;100421.50;;;14.75;100.00
70546;BME280;58098;51.680;5.134;2023-08-06T02:33:16;100416.25;;;14.75;100.00
70546;BME280;58098;51.680;5.134;2023-08-06T02:35:41;100410.16;;;14.67;100.00
70546;BME280;58098;51.680;5.134;2023-08-06T02:38:07;100418.06;;;14.75;100.00
70546;BME280;58098;51.680;5.134;2023-08-06T02:40:32;100420.19;;;14.71;100.00
70546;BME280;58098;51.680;5.134;2023-08-06T02:42:57;100409.97;;;14.68;100.00
70546;BME280;58098;51.680;5.134;2023-08-06T02:45:22;100426.75;;;14.75;100.00
70546;BME280;58098;51.680;5.134;2023-08-06T02:47:48;100428.72;;;14.73;100.00
70546;BME280;58098;51.680;5.134;2023-08-06T02:50:13;100425.94;;;14.75;100.00
70546;BME280;58098;51.680;5.134;2023-08-06T02:52:38;100412.47;;;14.70;100.00
70546;BME280;58098;51.680;5.134;2023-08-06T02:55:06;100415.09;;;14.78;100.00
70546;BME280;58098;51.680;5.134;2023-08-06T02:57:32;100415.94;;;14.78;100.00
70546;BME280;58098;51.680;5.134;2023-08-06T02:59:57;100404.94;;;14.75;100.00
70546;BME280;58098;51.680;5.134;2023-08-06T03:02:22;100403.44;;;14.72;100.00
70546;BME280;58098;51.680;5.134;2023-08-06T03:04:48;100407.69;;;14.73;100.00
70546;BME280;58098;51.680;5.134;2023-08-06T03:07:13;100408.38;;;14.75;100.00
70546;BME280;58098;51.680;5.134;2023-08-06T03:09:38;100417.91;;;14.76;100.00
70546;BME280;58098;51.680;5.134;2023-08-06T03:12:05;100416.25;;;14.75;100.00
70546;BME280;58098;51.680;5.134;2023-08-06T03:14:30;100409.50;;;14.73;100.00
70546;BME280;58098;51.680;5.134;2023-08-06T03:16:56;100420.53;;;14.76;100.00
70546;BME280;58098;51.680;5.134;2023-08-06T03:19:21;100421.50;;;14.75;100.00
70546;BME280;58098;51.680;5.134;2023-08-06T03:21:46;100406.38;;;14.69;100.00
70546;BME280;58098;51.680;5.134;2023-08-06T03:24:13;100417.91;;;14.76;100.00
70546;BME280;58098;51.680;5.134;2023-08-06T03:26:38;100413.25;;;14.70;100.00
70546;BME280;58098;51.680;5.134;2023-08-06T03:29:04;100416.06;;;14.69;100.00
70546;BME280;58098;51.680;5.134;2023-08-06T03:31:29;100408.00;;;14.70;100.00
70546;BME280;58098;51.680;5.134;2023-08-06T03:33:54;100412.28;;;14.71;100.00
70546;BME280;58098;51.680;5.134;2023-08-06T03:36:20;100417.38;;;14.73;100.00
70546;BME280;58098;51.680;5.134;2023-08-06T03:38:45;100428.41;;;14.76;100.00
70546;BME280;58098;51.680;5.134;2023-08-06T03:41:10;100413.59;;;14.67;100.00
70546;BME280;58098;51.680;5.134;2023-08-06T03:43:36;100422.31;;;14.76;100.00
70546;BME280;58098;51.680;5.134;2023-08-06T03:46:01;100423.47;;;14.73;100.00
70546;BME280;58098;51.680;5.134;2023-08-06T03:48:26;100421.84;;;14.72;100.00
70546;BME280;58098;51.680;5.134;2023-08-06T03:50:52;100423.16;;;14.76;100.00
70546;BME280;58098;51.680;5.134;2023-08-06T03:53:17;100416.06;;;14.69;100.00
70546;BME280;58098;51.680;5.134;2023-08-06T03:55:42;100425.94;;;14.75;100.00
70546;BME280;58098;51.680;5.134;2023-08-06T03:58:08;100411.91;;;14.58;100.00
70546;BME280;58098;51.680;5.134;2023-08-06T04:00:33;100419.66;;;14.68;100.00
70546;BME280;58098;51.680;5.134;2023-08-06T04:02:58;100423.78;;;14.70;100.00
70546;BME280;58098;51.680;5.134;2023-08-06T04:05:24;100433.31;;;14.71;100.00
70546;BME280;58098;51.680;5.134;2023-08-06T04:07:49;100427.41;;;14.69;100.00
70546;BME280;58098;51.680;5.134;2023-08-06T04:10:14;100425.72;;;14.68;100.00
70546;BME280;58098;51.680;5.134;2023-08-06T04:12:40;100426.03;;;14.65;100.00
70546;BME280;58098;51.680;5.134;2023-08-06T04:15:06;100435.09;;;14.71;100.00
70546;BME280;58098;51.680;5.134;2023-08-06T04:17:31;100431.00;;;14.68;100.00
70546;BME280;58098;51.680;5.134;2023-08-06T04:19:56;100419.16;;;14.64;100.00
70546;BME280;58098;51.680;5.134;2023-08-06T04:22:25;100411.53;;;14.53;100.00
70546;BME280;58098;51.680;5.134;2023-08-06T04:24:50;100432.47;;;14.71;100.00
70546;BME280;58098;51.680;5.134;2023-08-06T04:27:17;100429.03;;;14.70;100.00
70546;BME280;58098;51.680;5.134;2023-08-06T04:29:43;100432.97;;;14.66;100.00
70546;BME280;58098;51.680;5.134;2023-08-06T04:32:09;100426.72;;;14.67;100.00
70546;BME280;58098;51.680;5.134;2023-08-06T04:34:36;100437.69;;;14.63;100.00
70546;BME280;58098;51.680;5.134;2023-08-06T04:37:02;100456.41;;;14.68;100.00
70546;BME280;58098;51.680;5.134;2023-08-06T04:39:28;100456.59;;;14.66;100.00
70546;BME280;58098;51.680;5.134;2023-08-06T04:41:53;100456.75;;;14.65;100.00
70546;BME280;58098;51.680;5.134;2023-08-06T04:44:18;100463.16;;;14.62;100.00
70546;BME280;58098;51.680;5.134;2023-08-06T04:46:44;100455.75;;;14.58;100.00
70546;BME280;58098;51.680;5.134;2023-08-06T04:49:09;100443.38;;;14.50;100.00
70546;BME280;58098;51.680;5.134;2023-08-06T04:51:35;100458.50;;;14.56;100.00
70546;BME280;58098;51.680;5.134;2023-08-06T04:54:00;100457.84;;;14.54;100.00
70546;BME280;58098;51.680;5.134;2023-08-06T04:56:25;100454.91;;;14.57;100.00
70546;BME280;58098;51.680;5.134;2023-08-06T04:58:51;100470.03;;;14.63;100.00
70546;BME280;58098;51.680;5.134;2023-08-06T05:01:16;100461.50;;;14.61;100.00
70546;BME280;58098;51.680;5.134;2023-08-06T05:03:42;100458.69;;;14.63;100.00
70546;BME280;58098;51.680;5.134;2023-08-06T05:06:07;100459.88;;;14.68;100.00
70546;BME280;58098;51.680;5.134;2023-08-06T05:08:33;100465.78;;;14.70;100.00
70546;BME280;58098;51.680;5.134;2023-08-06T05:10:58;100468.16;;;14.81;100.00
70546;BME280;58098;51.680;5.134;2023-08-06T05:13:23;100479.16;;;14.85;100.00
70546;BME280;58098;51.680;5.134;2023-08-06T05:15:50;100470.25;;;14.78;100.00
70546;BME280;58098;51.680;5.134;2023-08-06T05:18:15;100478.72;;;14.89;100.00
70546;BME280;58098;51.680;5.134;2023-08-06T05:20:42;100469.00;;;14.90;100.00
70546;BME280;58098;51.680;5.134;2023-08-06T05:23:08;100492.22;;;15.02;100.00
70546;BME280;58098;51.680;5.134;2023-08-06T05:25:39;100490.91;;;15.06;100.00
70546;BME280;58098;51.680;5.134;2023-08-06T05:28:05;100489.28;;;15.05;100.00
70546;BME280;58098;51.680;5.134;2023-08-06T05:30:30;100496.50;;;15.03;100.00
70546;BME280;58098;51.680;5.134;2023-08-06T05:32:56;100503.75;;;15.09;100.00
70546;BME280;58098;51.680;5.134;2023-08-06T05:35:22;100515.25;;;15.08;100.00
70546;BME280;58098;51.680;5.134;2023-08-06T05:37:47;100500.28;;;15.01;100.00
70546;BME280;58098;51.680;5.134;2023-08-06T05:40:13;100517.19;;;15.06;100.00
70546;BME280;58098;51.680;5.134;2023-08-06T05:42:40;100514.91;;;15.03;100.00
70546;BME280;58098;51.680;5.134;2023-08-06T05:45:06;100529.44;;;14.90;100.00
70546;BME280;58098;51.680;5.134;2023-08-06T05:47:31;100521.16;;;14.77;100.00
70546;BME280;58098;51.680;5.134;2023-08-06T05:49:56;100522.47;;;14.47;100.00
70546;BME280;58098;51.680;5.134;2023-08-06T05:52:22;100542.56;;;14.38;100.00
70546;BME280;58098;51.680;5.134;2023-08-06T05:54:47;100542.25;;;14.24;100.00
70546;BME280;58098;51.680;5.134;2023-08-06T05:57:12;100557.28;;;14.14;100.00
70546;BME280;58098;51.680;5.134;2023-08-06T05:59:40;100565.28;;;14.12;100.00
70546;BME280;58098;51.680;5.134;2023-08-06T06:02:05;100564.59;;;13.93;100.00
70546;BME280;58098;51.680;5.134;2023-08-06T06:04:31;100588.72;;;13.78;100.00
70546;BME280;58098;51.680;5.134;2023-08-06T06:06:56;100567.97;;;13.67;100.00
70546;BME280;58098;51.680;5.134;2023-08-06T06:09:21;100583.00;;;13.65;100.00
70546;BME280;58098;51.680;5.134;2023-08-06T06:11:47;100565.91;;;13.61;100.00
70546;BME280;58098;51.680;5.134;2023-08-06T06:14:14;100571.50;;;13.49;100.00
70546;BME280;58098;51.680;5.134;2023-08-06T06:16:40;100582.53;;;13.52;100.00
70546;BME280;58098;51.680;5.134;2023-08-06T06:19:05;100573.06;;;13.42;100.00
70546;BME280;58098;51.680;5.134;2023-08-06T06:21:30;100591.41;;;13.42;100.00
70546;BME280;58098;51.680;5.134;2023-08-06T06:23:55;100586.31;;;13.40;100.00
70546;BME280;58098;51.680;5.134;2023-08-06T06:26:21;100586.56;;;13.47;100.00
70546;BME280;58098;51.680;5.134;2023-08-06T06:28:47;100608.38;;;13.47;100.00
70546;BME280;58098;51.680;5.134;2023-08-06T06:31:12;100602.88;;;13.41;100.00
70546;BME280;58098;51.680;5.134;2023-08-06T06:33:37;100617.34;;;13.45;100.00
70546;BME280;58098;51.680;5.134;2023-08-06T06:36:03;100623.41;;;13.45;100.00
70546;BME280;58098;51.680;5.134;2023-08-06T06:38:29;100627.88;;;13.35;100.00
70546;BME280;58098;51.680;5.134;2023-08-06T06:40:55;100614.66;;;13.27;100.00
70546;BME280;58098;51.680;5.134;2023-08-06T06:43:20;100613.00;;;13.26;100.00
70546;BME280;58098;51.680;5.134;2023-08-06T06:45:45;100632.56;;;13.32;100.00
70546;BME280;58098;51.680;5.134;2023-08-06T06:48:11;100637.38;;;13.36;100.00
70546;BME280;58098;51.680;5.134;2023-08-06T06:50:36;100643.16;;;13.40;100.00
70546;BME280;58098;51.680;5.134;2023-08-06T06:53:01;100645.53;;;13.33;100.00
70546;BME280;58098;51.680;5.134;2023-08-06T06:55:27;100637.78;;;13.32;100.00
70546;BME280;58098;51.680;5.134;2023-08-06T06:57:52;100645.09;;;13.38;100.00
70546;BME280;58098;51.680;5.134;2023-08-06T07:00:18;100650.19;;;13.39;100.00
70546;BME280;58098;51.680;5.134;2023-08-06T07:02:43;100648.84;;;13.35;100.00
70546;BME280;58098;51.680;5.134;2023-08-06T07:05:09;100650.19;;;13.39;100.00
70546;BME280;58098;51.680;5.134;2023-08-06T07:07:34;100655.72;;;13.36;100.00
70546;BME280;58098;51.680;5.134;2023-08-06T07:10:01;100669.13;;;13.33;100.00
70546;BME280;58098;51.680;5.134;2023-08-06T07:12:26;100654.50;;;13.31;100.00
70546;BME280;58098;51.680;5.134;2023-08-06T07:14:51;100667.31;;;13.34;100.00
70546;BME280;58098;51.680;5.134;2023-08-06T07:17:17;100662.63;;;13.37;100.00
70546;BME280;58098;51.680;5.134;2023-08-06T07:19:42;100669.91;;;13.43;100.00
70546;BME280;58098;51.680;5.134;2023-08-06T07:22:07;100664.13;;;13.40;100.00
70546;BME280;58098;51.680;5.134;2023-08-06T07:24:33;100667.31;;;13.43;100.00
70546;BME280;58098;51.680;5.134;2023-08-06T07:26:58;100675.53;;;13.48;100.00
70546;BME280;58098;51.680;5.134;2023-08-06T07:29:23;100685.22;;;13.48;100.00
70546;BME280;58098;51.680;5.134;2023-08-06T07:31:49;100686.38;;;13.63;100.00
70546;BME280;58098;51.680;5.134;2023-08-06T07:34:15;100698.38;;;13.65;100.00
70546;BME280;58098;51.680;5.134;2023-08-06T07:36:46;100701.69;;;13.67;100.00
70546;BME280;58098;51.680;5.134;2023-08-06T07:39:11;100705.53;;;13.73;100.00
70546;BME280;58098;51.680;5.134;2023-08-06T07:41:36;100701.34;;;13.80;100.00
70546;BME280;58098;51.680;5.134;2023-08-06T07:44:02;100702.84;;;13.82;100.00
70546;BME280;58098;51.680;5.134;2023-08-06T07:46:27;100702.19;;;13.80;100.00
70546;BME280;58098;51.680;5.134;2023-08-06T07:48:52;100689.09;;;13.71;100.00
70546;BME280;58098;51.680;5.134;2023-08-06T07:51:18;100701.22;;;13.81;100.00
70546;BME280;58098;51.680;5.134;2023-08-06T07:53:43;100707.13;;;13.83;100.00
70546;BME280;58098;51.680;5.134;2023-08-06T07:56:09;100715.41;;;13.88;100.00
70546;BME280;58098;51.680;5.134;2023-08-06T07:58:34;100706.19;;;13.84;100.00
70546;BME280;58098;51.680;5.134;2023-08-06T08:01:00;100710.84;;;13.90;100.00
70546;BME280;58098;51.680;5.134;2023-08-06T08:03:25;100702.28;;;13.88;100.00
70546;BME280;58098;51.680;5.134;2023-08-06T08:05:54;100705.31;;;13.94;100.00
70546;BME280;58098;51.680;5.134;2023-08-06T08:08:22;100712.97;;;14.05;100.00
70546;BME280;58098;51.680;5.134;2023-08-06T08:10:47;100700.44;;;13.99;100.00
70546;BME280;58098;51.680;5.134;2023-08-06T08:13:13;100716.88;;;14.01;100.00
70546;BME280;58098;51.680;5.134;2023-08-06T08:15:38;100714.53;;;13.98;100.00
70546;BME280;58098;51.680;5.134;2023-08-06T08:18:04;100705.44;;;13.92;100.00
70546;BME280;58098;51.680;5.134;2023-08-06T08:20:29;100720.06;;;13.95;100.00
70546;BME280;58098;51.680;5.134;2023-08-06T08:22:58;100723.94;;;13.90;100.00
70546;BME280;58098;51.680;5.134;2023-08-06T08:25:24;100718.97;;;13.87;100.00
70546;BME280;58098;51.680;5.134;2023-08-06T08:27:49;100714.34;;;13.81;100.00
70546;BME280;58098;51.680;5.134;2023-08-06T08:30:15;100712.94;;;13.77;100.00
70546;BME280;58098;51.680;5.134;2023-08-06T08:32:40;100724.44;;;13.76;100.00
70546;BME280;58098;51.680;5.134;2023-08-06T08:35:05;100730.06;;;13.81;100.00
70546;BME280;58098;51.680;5.134;2023-08-06T08:37:31;100724.59;;;13.75;100.00
70546;BME280;58098;51.680;5.134;2023-08-06T08:39:56;100731.44;;;13.85;100.00
70546;BME280;58098;51.680;5.134;2023-08-06T08:42:21;100732.03;;;13.79;100.00
70546;BME280;58098;51.680;5.134;2023-08-06T08:44:47;100717.09;;;13.80;100.00
70546;BME280;58098;51.680;5.134;2023-08-06T08:47:13;100743.59;;;13.86;100.00
70546;BME280;58098;51.680;5.134;2023-08-06T08:49:42;100739.19;;;13.77;100.00
70546;BME280;58098;51.680;5.134;2023-08-06T08:52:10;100756.69;;;13.86;100.00
70546;BME280;58098;51.680;5.134;2023-08-06T08:54:38;100758.50;;;13.86;100.00
70546;BME280;58098;51.680;5.134;2023-08-06T08:57:04;100744.69;;;13.84;100.00
70546;BME280;58098;51.680;5.134;2023-08-06T08:59:30;100748.03;;;13.76;100.00
70546;BME280;58098;51.680;5.134;2023-08-06T09:01:56;100745.41;;;13.76;100.00
70546;BME280;58098;51.680;5.134;2023-08-06T09:04:22;100763.19;;;13.82;100.00
70546;BME280;58098;51.680;5.134;2023-08-06T09:06:50;100752.56;;;13.84;100.00
70546;BME280;58098;51.680;5.134;2023-08-06T09:09:25;100765.91;;;13.90;100.00
70546;BME280;58098;51.680;5.134;2023-08-06T09:11:51;100763.34;;;13.81;100.00
70546;BME280;58098;51.680;5.134;2023-08-06T09:14:16;100762.78;;;13.77;100.00
70546;BME280;58098;51.680;5.134;2023-08-06T09:16:43;100771.44;;;13.87;100.00
70546;BME280;58098;51.680;5.134;2023-08-06T09:19:12;100782.53;;;13.81;100.00
70546;BME280;58098;51.680;5.134;2023-08-06T09:21:41;100785.44;;;13.78;100.00
70546;BME280;58098;51.680;5.134;2023-08-06T09:24:11;100789.72;;;13.79;100.00
70546;BME280;58098;51.680;5.134;2023-08-06T09:26:39;100782.13;;;13.76;100.00
70546;BME280;58098;51.680;5.134;2023-08-06T09:29:09;100790.00;;;13.76;100.00
70546;BME280;58098;51.680;5.134;2023-08-06T09:31:44;100780.19;;;13.78;100.00
70546;BME280;58098;51.680;5.134;2023-08-06T09:34:20;100785.59;;;13.77;100.00
70546;BME280;58098;51.680;5.134;2023-08-06T09:36:49;100788.72;;;13.80;100.00
70546;BME280;58098;51.680;5.134;2023-08-06T09:39:20;100803.78;;;13.78;100.00
70546;BME280;58098;51.680;5.134;2023-08-06T09:41:46;100797.03;;;13.76;100.00
70546;BME280;58098;51.680;5.134;2023-08-06T09:44:16;100790.28;;;13.73;100.00
70546;BME280;58098;51.680;5.134;2023-08-06T09:46:46;100810.81;;;13.78;100.00
70546;BME280;58098;51.680;5.134;2023-08-06T09:49:12;100799.25;;;13.71;100.00
70546;BME280;58098;51.680;5.134;2023-08-06T09:51:37;100813.75;;;13.75;100.00
70546;BME280;58098;51.680;5.134;2023-08-06T09:54:05;100828.06;;;13.80;100.00
70546;BME280;58098;51.680;5.134;2023-08-06T09:56:31;100806.16;;;13.72;100.00
70546;BME280;58098;51.680;5.134;2023-08-06T09:59:04;100821.88;;;13.81;100.00
70546;BME280;58098;51.680;5.134;2023-08-06T10:01:32;100811.94;;;13.75;100.00
70546;BME280;58098;51.680;5.134;2023-08-06T10:04:00;100823.91;;;13.87;100.00
70546;BME280;58098;51.680;5.134;2023-08-06T10:06:26;100838.09;;;13.95;100.00
70546;BME280;58098;51.680;5.134;2023-08-06T10:08:53;100818.66;;;13.87;100.00
70546;BME280;58098;51.680;5.134;2023-08-06T10:11:21;100825.56;;;13.88;100.00
70546;BME280;58098;51.680;5.134;2023-08-06T10:13:48;100833.69;;;13.95;100.00
70546;BME280;58098;51.680;5.134;2023-08-06T10:16:14;100838.78;;;14.06;100.00
70546;BME280;58098;51.680;5.134;2023-08-06T10:18:40;100832.88;;;14.04;100.00
70546;BME280;58098;51.680;5.134;2023-08-06T10:21:09;100848.16;;;14.09;100.00
70546;BME280;58098;51.680;5.134;2023-08-06T10:23:36;100854.78;;;14.13;100.00
70546;BME280;58098;51.680;5.134;2023-08-06T10:26:03;100851.59;;;14.09;100.00
70546;BME280;58098;51.680;5.134;2023-08-06T10:28:39;100844.06;;;13.97;100.00
70546;BME280;58098;51.680;5.134;2023-08-06T10:31:05;100830.38;;;13.93;100.00
70546;BME280;58098;51.680;5.134;2023-08-06T10:33:41;100853.41;;;14.09;100.00
70546;BME280;58098;51.680;5.134;2023-08-06T10:36:09;100850.47;;;14.12;100.00
70546;BME280;58098;51.680;5.134;2023-08-06T10:38:36;100847.81;;;14.21;100.00
70546;BME280;58098;51.680;5.134;2023-08-06T10:41:15;100849.03;;;14.36;100.00
70546;BME280;58098;51.680;5.134;2023-08-06T10:43:40;100856.88;;;14.46;100.00
70546;BME280;58098;51.680;5.134;2023-08-06T10:46:21;100830.66;;;14.36;100.00
70546;BME280;58098;51.680;5.134;2023-08-06T10:48:47;100849.38;;;14.51;100.00
70546;BME280;58098;51.680;5.134;2023-08-06T10:51:13;100849.59;;;14.67;100.00
70546;BME280;58098;51.680;5.134;2023-08-06T10:53:47;100850.66;;;14.74;100.00
70546;BME280;58098;51.680;5.134;2023-08-06T10:58:41;100852.94;;;15.04;100.00
70546;BME280;58098;51.680;5.134;2023-08-06T11:01:07;100857.81;;;14.99;100.00
70546;BME280;58098;51.680;5.134;2023-08-06T11:03:33;100856.28;;;14.97;100.00
70546;BME280;58098;51.680;5.134;2023-08-06T11:05:59;100859.84;;;15.05;100.00
70546;BME280;58098;51.680;5.134;2023-08-06T11:08:29;100857.59;;;15.10;100.00
70546;BME280;58098;51.680;5.134;2023-08-06T11:10:54;100862.09;;;15.36;100.00
70546;BME280;58098;51.680;5.134;2023-08-06T11:13:21;100846.00;;;15.39;100.00
70546;BME280;58098;51.680;5.134;2023-08-06T11:15:46;100840.31;;;15.61;100.00
70546;BME280;58098;51.680;5.134;2023-08-06T11:18:12;100864.78;;;15.79;100.00
70546;BME280;58098;51.680;5.134;2023-08-06T11:20:38;100865.19;;;15.92;100.00
70546;BME280;58098;51.680;5.134;2023-08-06T11:23:04;100858.38;;;16.07;100.00
70546;BME280;58098;51.680;5.134;2023-08-06T11:25:30;100864.78;;;16.05;100.00
70546;BME280;58098;51.680;5.134;2023-08-06T11:27:55;100860.75;;;16.18;100.00
70546;BME280;58098;51.680;5.134;2023-08-06T11:30:20;100870.06;;;16.38;100.00
70546;BME280;58098;51.680;5.134;2023-08-06T11:32:49;100868.13;;;16.48;100.00
70546;BME280;58098;51.680;5.134;2023-08-06T11:35:15;100873.84;;;16.62;100.00
70546;BME280;58098;51.680;5.134;2023-08-06T11:37:46;100881.38;;;16.65;100.00
70546;BME280;58098;51.680;5.134;2023-08-06T11:40:14;100879.47;;;16.75;100.00
70546;BME280;58098;51.680;5.134;2023-08-06T11:42:40;100871.91;;;16.80;100.00
70546;BME280;58098;51.680;5.134;2023-08-06T11:45:07;100849.97;;;16.79;100.00
70546;BME280;58098;51.680;5.134;2023-08-06T11:47:38;100879.25;;;17.10;100.00
70546;BME280;58098;51.680;5.134;2023-08-06T11:50:05;100878.75;;;17.23;100.00
70546;BME280;58098;51.680;5.134;2023-08-06T11:52:30;100878.94;;;17.37;100.00
70546;BME280;58098;51.680;5.134;2023-08-06T11:57:28;100867.75;;;17.84;100.00
70546;BME280;58098;51.680;5.134;2023-08-06T11:59:54;100873.00;;;17.92;100.00
70546;BME280;58098;51.680;5.134;2023-08-06T12:02:21;100888.78;;;18.16;100.00
70546;BME280;58098;51.680;5.134;2023-08-06T12:05:09;100868.28;;;18.34;100.00
70546;BME280;58098;51.680;5.134;2023-08-06T12:07:40;100884.44;;;18.39;100.00
70546;BME280;58098;51.680;5.134;2023-08-06T12:10:06;100889.25;;;18.52;100.00
70546;BME280;58098;51.680;5.134;2023-08-06T12:12:32;100880.78;;;18.56;100.00
70546;BME280;58098;51.680;5.134;2023-08-06T12:14:58;100880.47;;;18.43;100.00
70546;BME280;58098;51.680;5.134;2023-08-06T12:17:24;100895.69;;;18.41;100.00
70546;BME280;58098;51.680;5.134;2023-08-06T12:19:49;100904.31;;;18.19;100.00
70546;BME280;58098;51.680;5.134;2023-08-06T12:22:15;100914.56;;;18.22;100.00
70546;BME280;58098;51.680;5.134;2023-08-06T12:24:45;100904.66;;;18.16;100.00
70546;BME280;58098;51.680;5.134;2023-08-06T12:27:11;100901.84;;;18.17;100.00
70546;BME280;58098;51.680;5.134;2023-08-06T12:29:40;100897.03;;;18.37;100.00
70546;BME280;58098;51.680;5.134;2023-08-06T12:32:05;100901.88;;;18.64;100.00
70546;BME280;58098;51.680;5.134;2023-08-06T12:34:31;100894.22;;;18.77;100.00
70546;BME280;58098;51.680;5.134;2023-08-06T12:36:56;100916.03;;;18.79;100.00
70546;BME280;58098;51.680;5.134;2023-08-06T12:39:22;100917.75;;;18.64;100.00
70546;BME280;58098;51.680;5.134;2023-08-06T12:41:47;100906.25;;;18.41;100.00
70546;BME280;58098;51.680;5.134;2023-08-06T12:44:12;100922.81;;;18.19;100.00
70546;BME280;58098;51.680;5.134;2023-08-06T12:46:38;100909.47;;;17.96;100.00